Time;durP1;ratioP1;P1;durP2;ratioP2;P2;SDS_P1;SDS_P2;PMS_P1;PMS_P2;Temp;Humidity;BMP_temperature;BMP_pressure;BME280_temperature;BME280_humidity;BME280_pressure;Samples;Min_cycle;Max_cycle;Signal;HPM_P1;HPM_P2
2024/01/15 00:00:17;;;;;;;29.15;18.85;;;;;;;;;;5098809;28;20044;-54
2024/01/15 00:02:43;;;;;;;24.40;17.00;;;;;;;;;;5113729;28;20070;-55
2024/01/15 00:05:10;;;;;;;26.73;17.33;;;;;;;;;;5113838;28;20055;-53
2024/01/15 00:07:37;;;;;;;24.70;17.52;;;;;;;;;;5113671;28;20044;-55
2024/01/15 00:10:06;;;;;;;25.55;16.85;;;;;;;;;;5114253;28;20052;-53
2024/01/15 00:12:33;;;;;;;25.63;17.40;;;;;;;;;;5113975;28;20051;-53
2024/01/15 00:15:00;;;;;;;27.38;18.27;;;;;;;;;;5114263;28;20476;-56
2024/01/15 00:17:26;;;;;;;27.50;18.02;;;;;;;;;;5114081;28;20055;-54
2024/01/15 00:19:53;;;;;;;29.35;19.25;;;;;;;;;;5114120;28;20052;-53
2024/01/15 00:22:20;;;;;;;27.50;19.15;;;;;;;;;;5113510;28;20489;-54
2024/01/15 00:24:47;;;;;;;25.73;18.25;;;;;;;;;;5114039;28;20390;-52
2024/01/15 00:27:15;;;;;;;28.63;20.70;;;;;;;;;;5113789;28;20484;-53
2024/01/15 00:29:42;;;;;;;31.63;21.00;;;;;;;;;;5113567;28;20047;-53
2024/01/15 00:32:09;;;;;;;27.75;18.98;;;;;;;;;;5113398;28;20055;-54
2024/01/15 00:34:36;;;;;;;30.98;19.50;;;;;;;;;;5113795;28;20377;-53
2024/01/15 00:37:03;;;;;;;30.63;20.92;;;;;;;;;;5112593;28;20052;-53
2024/01/15 00:39:30;;;;;;;29.23;19.67;;;;;;;;;;5113556;28;20074;-55
2024/01/15 00:41:57;;;;;;;33.50;21.13;;;;;;;;;;5113478;28;20052;-51
2024/01/15 00:44:25;;;;;;;33.65;21.52;;;;;;;;;;5113233;28;20054;-52
2024/01/15 00:46:52;;;;;;;31.98;21.88;;;;;;;;;;5113486;28;20047;-52
2024/01/15 00:49:19;;;;;;;28.35;20.13;;;;;;;;;;5113221;28;20063;-52
2024/01/15 00:51:46;;;;;;;32.38;21.65;;;;;;;;;;5113185;28;20048;-54
2024/01/15 00:54:13;;;;;;;31.75;21.00;;;;;;;;;;5113269;28;20058;-57
2024/01/15 00:56:39;;;;;;;34.33;22.42;;;;;;;;;;5113229;28;20404;-53
2024/01/15 00:59:07;;;;;;;31.50;20.80;;;;;;;;;;5096413;28;20051;-53
2024/01/15 01:01:35;;;;;;;30.08;20.10;;;;;;;;;;5113126;28;20048;-53
2024/01/15 01:04:02;;;;;;;31.00;20.40;;;;;;;;;;5113148;28;20058;-52
2024/01/15 01:06:29;;;;;;;27.10;18.80;;;;;;;;;;5113046;28;20055;-51
2024/01/15 01:08:56;;;;;;;30.02;20.38;;;;;;;;;;5112895;28;20052;-53
2024/01/15 01:11:22;;;;;;;30.45;20.17;;;;;;;;;;5110671;28;20051;-52
2024/01/15 01:13:49;;;;;;;28.10;19.55;;;;;;;;;;5096503;28;20060;-53
2024/01/15 01:16:16;;;;;;;29.45;20.33;;;;;;;;;;5092083;28;20052;-54
2024/01/15 01:18:45;;;;;;;26.85;19.23;;;;;;;;;;5092675;28;20063;-55
2024/01/15 01:21:11;;;;;;;27.48;19.30;;;;;;;;;;5092183;28;20044;-52
2024/01/15 01:23:38;;;;;;;31.48;20.63;;;;;;;;;;5092550;28;20059;-53
2024/01/15 01:26:05;;;;;;;28.08;19.90;;;;;;;;;;5092262;28;20051;-54
2024/01/15 01:28:32;;;;;;;28.40;19.83;;;;;;;;;;5092505;28;20052;-53
2024/01/15 01:30:59;;;;;;;28.83;18.95;;;;;;;;;;5112877;28;20051;-55
2024/01/15 01:33:25;;;;;;;29.95;19.33;;;;;;;;;;5112752;28;20051;-54
2024/01/15 01:35:54;;;;;;;28.95;19.38;;;;;;;;;;5112679;28;20059;-52
2024/01/15 01:38:20;;;;;;;26.73;17.55;;;;;;;;;;5112970;28;20047;-53
2024/01/15 01:40:47;;;;;;;27.95;19.27;;;;;;;;;;5112493;28;20058;-54
2024/01/15 01:43:14;;;;;;;28.40;20.52;;;;;;;;;;5112717;28;20055;-53
2024/01/15 01:45:41;;;;;;;33.28;21.10;;;;;;;;;;5112403;28;20058;-53
2024/01/15 01:48:08;;;;;;;31.75;20.17;;;;;;;;;;5114606;28;20390;-53
2024/01/15 01:50:35;;;;;;;30.98;20.85;;;;;;;;;;5116749;28;20052;-54
2024/01/15 01:53:04;;;;;;;31.45;20.88;;;;;;;;;;5116203;28;20063;-53
2024/01/15 01:55:33;;;;;;;31.42;20.38;;;;;;;;;;5116111;28;20074;-54
2024/01/15 01:58:00;;;;;;;30.38;18.90;;;;;;;;;;5114206;28;20051;-54
2024/01/15 02:00:27;;;;;;;27.83;18.77;;;;;;;;;;5110441;28;20070;-54
2024/01/15 02:02:54;;;;;;;26.55;18.83;;;;;;;;;;5116185;28;20054;-53
2024/01/15 02:05:21;;;;;;;30.02;19.48;;;;;;;;;;5116518;28;20063;-55
2024/01/15 02:07:48;;;;;;;29.27;19.25;;;;;;;;;;5115958;28;20051;-55
2024/01/15 02:10:17;;;;;;;28.80;18.50;;;;;;;;;;5116402;28;20063;-55
2024/01/15 02:12:43;;;;;;;28.83;18.35;;;;;;;;;;5115976;28;20409;-55
2024/01/15 02:15:10;;;;;;;29.42;18.77;;;;;;;;;;5115739;28;20067;-55
2024/01/15 02:17:57;;;;;;;29.90;19.70;;;;;;;;;;5116349;28;20055;-56
2024/01/15 02:20:23;;;;;;;28.40;19.13;;;;;;;;;;5115869;28;20051;-54
2024/01/15 02:22:50;;;;;;;29.10;19.60;;;;;;;;;;5115724;28;20051;-55
2024/01/15 02:25:18;;;;;;;28.55;18.70;;;;;;;;;;5115977;28;20059;-55
2024/01/15 02:27:45;;;;;;;28.02;18.95;;;;;;;;;;5115321;28;20055;-57
2024/01/15 02:30:13;;;;;;;29.08;18.70;;;;;;;;;;5116192;28;20062;-54
2024/01/15 02:32:39;;;;;;;29.40;17.77;;;;;;;;;;5115937;28;20054;-55
2024/01/15 02:35:06;;;;;;;28.73;18.08;;;;;;;;;;5115960;28;20495;-55
2024/01/15 02:37:33;;;;;;;29.65;19.10;;;;;;;;;;5115649;28;20056;-56
2024/01/15 02:40:00;;;;;;;27.45;18.58;;;;;;;;;;5115923;28;20056;-56
2024/01/15 02:42:28;;;;;;;28.92;18.00;;;;;;;;;;5115652;28;20048;-56
2024/01/15 02:44:55;;;;;;;25.63;16.98;;;;;;;;;;5115799;28;20055;-56
2024/01/15 02:47:22;;;;;;;26.83;18.45;;;;;;;;;;5115545;28;20493;-57
2024/01/15 02:49:48;;;;;;;28.15;17.63;;;;;;;;;;5115525;28;20052;-55
2024/01/15 02:52:15;;;;;;;28.77;19.05;;;;;;;;;;5115320;28;20051;-56
2024/01/15 02:54:42;;;;;;;27.33;18.13;;;;;;;;;;5115106;28;20126;-56
2024/01/15 02:57:09;;;;;;;30.30;18.52;;;;;;;;;;5115142;28;20059;-56
2024/01/15 02:59:37;;;;;;;29.60;17.85;;;;;;;;;;5097397;28;20055;-56
2024/01/15 03:02:04;;;;;;;23.80;16.52;;;;;;;;;;5115151;28;20405;-56
2024/01/15 03:04:31;;;;;;;28.90;18.27;;;;;;;;;;5115320;28;20507;-55
2024/01/15 03:06:57;;;;;;;29.73;17.58;;;;;;;;;;5115117;28;20480;-56
2024/01/15 03:09:24;;;;;;;28.70;17.55;;;;;;;;;;5115156;28;20048;-56
2024/01/15 03:11:51;;;;;;;28.08;17.35;;;;;;;;;;5114983;28;20047;-56
2024/01/15 03:14:18;;;;;;;28.30;17.10;;;;;;;;;;5115206;28;20059;-56
2024/01/15 03:16:46;;;;;;;27.73;16.13;;;;;;;;;;5114810;28;20063;-55
2024/01/15 03:19:13;;;;;;;26.10;17.05;;;;;;;;;;5114958;28;20059;-56
2024/01/15 03:21:39;;;;;;;27.48;16.85;;;;;;;;;;5114725;28;20058;-56
2024/01/15 03:24:06;;;;;;;25.75;16.38;;;;;;;;;;5114840;28;20052;-56
2024/01/15 03:26:33;;;;;;;26.90;16.73;;;;;;;;;;5114375;28;20492;-56
2024/01/15 03:29:00;;;;;;;30.40;16.38;;;;;;;;;;5114462;28;20055;-55
2024/01/15 03:31:27;;;;;;;32.70;17.25;;;;;;;;;;5114771;28;20409;-56
2024/01/15 03:33:55;;;;;;;26.33;16.95;;;;;;;;;;5114875;28;20051;-55
2024/01/15 03:36:22;;;;;;;27.67;16.42;;;;;;;;;;5114135;28;20067;-55
2024/01/15 03:38:48;;;;;;;26.73;16.73;;;;;;;;;;5114625;28;20047;-55
2024/01/15 03:41:15;;;;;;;26.73;16.73;;;;;;;;;;5114217;28;20051;-56
2024/01/15 03:43:42;;;;;;;27.40;16.65;;;;;;;;;;5114486;28;20054;-54
2024/01/15 03:46:09;;;;;;;24.70;16.90;;;;;;;;;;5114401;28;20054;-56
2024/01/15 03:48:36;;;;;;;24.33;15.77;;;;;;;;;;5114313;28;20051;-56
2024/01/15 03:51:04;;;;;;;23.67;15.50;;;;;;;;;;5114438;28;20055;-56
2024/01/15 03:53:31;;;;;;;26.50;16.50;;;;;;;;;;5114084;28;20051;-56
2024/01/15 03:55:58;;;;;;;25.92;15.50;;;;;;;;;;5113774;28;20063;-55
2024/01/15 03:58:25;;;;;;;23.83;14.68;;;;;;;;;;5102686;28;20055;-55
2024/01/15 04:00:52;;;;;;;22.10;14.02;;;;;;;;;;5109092;28;20062;-56
2024/01/15 04:03:18;;;;;;;23.27;15.05;;;;;;;;;;5114014;28;20039;-56
2024/01/15 04:05:45;;;;;;;27.38;15.52;;;;;;;;;;5114190;28;20509;-56
2024/01/15 04:08:13;;;;;;;22.90;13.55;;;;;;;;;;5113676;28;20433;-56
2024/01/15 04:10:40;;;;;;;23.02;14.07;;;;;;;;;;5113287;28;20052;-55
2024/01/15 04:13:07;;;;;;;22.70;14.15;;;;;;;;;;5113943;28;20397;-55
2024/01/15 04:15:34;;;;;;;21.95;14.02;;;;;;;;;;5114024;28;20058;-55
2024/01/15 04:18:01;;;;;;;20.08;13.07;;;;;;;;;;5113704;28;20048;-56
2024/01/15 04:20:28;;;;;;;19.67;13.32;;;;;;;;;;5113286;28;20416;-55
2024/01/15 04:22:55;;;;;;;26.40;13.35;;;;;;;;;;5113133;28;20127;-55
2024/01/15 04:25:23;;;;;;;20.23;13.55;;;;;;;;;;5113904;28;20051;-56
2024/01/15 04:27:50;;;;;;;21.23;13.30;;;;;;;;;;5113477;28;20059;-56
2024/01/15 04:30:17;;;;;;;20.83;12.30;;;;;;;;;;5113374;28;20055;-56
2024/01/15 04:32:44;;;;;;;18.10;11.98;;;;;;;;;;5113524;28;20378;-57
2024/01/15 04:35:12;;;;;;;23.48;13.30;;;;;;;;;;5112821;28;20054;-56
2024/01/15 04:37:39;;;;;;;17.02;11.10;;;;;;;;;;5113187;28;20059;-56
2024/01/15 04:40:07;;;;;;;19.92;12.50;;;;;;;;;;5113310;28;20059;-56
2024/01/15 04:42:35;;;;;;;20.02;12.18;;;;;;;;;;5112952;28;20062;-56
2024/01/15 04:45:03;;;;;;;19.65;11.68;;;;;;;;;;5113015;28;20047;-56
2024/01/15 04:47:30;;;;;;;18.33;11.25;;;;;;;;;;5112631;28;20051;-56
2024/01/15 04:49:57;;;;;;;18.70;11.23;;;;;;;;;;5113225;28;20052;-57
2024/01/15 04:52:24;;;;;;;17.50;11.50;;;;;;;;;;5112948;28;20059;-56
2024/01/15 04:54:51;;;;;;;17.38;10.98;;;;;;;;;;5113098;28;20068;-56
2024/01/15 04:57:17;;;;;;;22.02;12.07;;;;;;;;;;5113173;28;20396;-57
2024/01/15 04:59:46;;;;;;;21.92;11.93;;;;;;;;;;5096439;28;20066;-57
2024/01/15 05:02:12;;;;;;;20.23;12.43;;;;;;;;;;5113170;28;20070;-56
2024/01/15 05:04:40;;;;;;;23.63;11.88;;;;;;;;;;5113304;28;20059;-56
2024/01/15 05:07:07;;;;;;;19.92;10.85;;;;;;;;;;5113034;28;20051;-55
2024/01/15 05:09:34;;;;;;;20.83;11.05;;;;;;;;;;5113051;28;20055;-57
2024/01/15 05:12:00;;;;;;;19.20;11.25;;;;;;;;;;5113116;28;20054;-57
2024/01/15 05:14:27;;;;;;;16.95;10.52;;;;;;;;;;5112838;28;20129;-57
2024/01/15 05:16:55;;;;;;;17.98;10.90;;;;;;;;;;5112956;28;20052;-56
2024/01/15 05:19:22;;;;;;;16.95;11.15;;;;;;;;;;5112872;28;20492;-56
2024/01/15 05:21:49;;;;;;;18.92;11.32;;;;;;;;;;5112684;28;20059;-56
2024/01/15 05:24:16;;;;;;;20.10;11.60;;;;;;;;;;5117209;28;20055;-56
2024/01/15 05:26:42;;;;;;;18.73;12.10;;;;;;;;;;5117352;28;20059;-57
2024/01/15 05:29:09;;;;;;;19.88;11.88;;;;;;;;;;5117190;28;20063;-57
2024/01/15 05:31:36;;;;;;;20.92;11.95;;;;;;;;;;5116733;28;20056;-56
2024/01/15 05:34:05;;;;;;;16.08;10.77;;;;;;;;;;5116756;28;20393;-57
2024/01/15 05:36:31;;;;;;;20.52;10.77;;;;;;;;;;5116765;28;20048;-57
2024/01/15 05:38:58;;;;;;;17.48;11.30;;;;;;;;;;5116689;28;20056;-57
2024/01/15 05:41:25;;;;;;;21.85;11.75;;;;;;;;;;5116723;28;20062;-57
2024/01/15 05:43:52;;;;;;;15.43;10.90;;;;;;;;;;5116617;28;20047;-55
2024/01/15 05:46:18;;;;;;;20.80;11.77;;;;;;;;;;5116492;28;20404;-56
2024/01/15 05:48:45;;;;;;;16.52;10.88;;;;;;;;;;5116377;28;20047;-57
2024/01/15 05:51:13;;;;;;;16.98;11.50;;;;;;;;;;5116554;28;20051;-57
2024/01/15 05:53:42;;;;;;;18.77;11.18;;;;;;;;;;5116087;28;20056;-56
2024/01/15 05:56:10;;;;;;;18.05;11.73;;;;;;;;;;5116475;28;20058;-57
2024/01/15 05:58:37;;;;;;;20.90;11.98;;;;;;;;;;5116153;28;20056;-57
2024/01/15 06:01:04;;;;;;;19.25;11.70;;;;;;;;;;5116292;28;20055;-57
2024/01/15 06:03:31;;;;;;;18.08;11.70;;;;;;;;;;5116351;28;20047;-57
2024/01/15 06:05:58;;;;;;;16.15;11.13;;;;;;;;;;5116098;28;20056;-57
2024/01/15 06:08:27;;;;;;;15.35;10.00;;;;;;;;;;5116201;28;20082;-57
2024/01/15 06:10:54;;;;;;;20.40;11.68;;;;;;;;;;5115949;28;20054;-57
2024/01/15 06:13:21;;;;;;;19.85;10.40;;;;;;;;;;5115876;28;20047;-57
2024/01/15 06:15:48;;;;;;;22.08;10.40;;;;;;;;;;5116199;28;20051;-57
2024/01/15 06:18:14;;;;;;;17.00;10.48;;;;;;;;;;5115862;28;20052;-57
2024/01/15 06:20:41;;;;;;;13.77;9.57;;;;;;;;;;5115911;28;20060;-57
2024/01/15 06:23:08;;;;;;;17.05;10.35;;;;;;;;;;5116128;28;20058;-57
2024/01/15 06:25:36;;;;;;;14.82;10.18;;;;;;;;;;5115851;28;20507;-57
2024/01/15 06:28:04;;;;;;;15.95;10.20;;;;;;;;;;5115681;28;20051;-57
2024/01/15 06:30:31;;;;;;;17.33;9.57;;;;;;;;;;5115505;28;20409;-57
2024/01/15 06:32:58;;;;;;;14.25;9.40;;;;;;;;;;5115720;28;20051;-57
2024/01/15 06:35:25;;;;;;;15.93;9.70;;;;;;;;;;5115931;28;20060;-57
2024/01/15 06:37:51;;;;;;;15.82;10.77;;;;;;;;;;5115361;28;20054;-57
2024/01/15 06:40:18;;;;;;;17.92;11.48;;;;;;;;;;5115299;28;20056;-57
2024/01/15 06:42:46;;;;;;;18.52;10.10;;;;;;;;;;5115806;28;20063;-57
2024/01/15 06:45:13;;;;;;;15.30;10.20;;;;;;;;;;5115694;28;20070;-56
2024/01/15 06:47:40;;;;;;;15.77;9.15;;;;;;;;;;5115406;28;20052;-57
2024/01/15 06:50:09;;;;;;;15.02;10.05;;;;;;;;;;5115645;28;20071;-57
2024/01/15 06:52:35;;;;;;;16.98;10.13;;;;;;;;;;5115181;28;20055;-57
2024/01/15 06:55:02;;;;;;;17.13;9.82;;;;;;;;;;5115081;28;20059;-56
2024/01/15 06:57:29;;;;;;;18.60;10.00;;;;;;;;;;5115335;28;20527;-57
2024/01/15 06:59:59;;;;;;;15.20;10.45;;;;;;;;;;5115340;28;20101;-57
2024/01/15 07:02:26;;;;;;;14.98;10.13;;;;;;;;;;5115201;28;20076;-56
2024/01/15 07:04:53;;;;;;;17.13;10.30;;;;;;;;;;5115385;28;20051;-58
2024/01/15 07:07:20;;;;;;;15.32;10.40;;;;;;;;;;5115058;28;20377;-58
2024/01/15 07:09:47;;;;;;;14.48;10.07;;;;;;;;;;5115176;28;20066;-58
2024/01/15 07:12:13;;;;;;;16.65;10.88;;;;;;;;;;5114961;28;20052;-58
2024/01/15 07:14:40;;;;;;;16.13;10.43;;;;;;;;;;5114993;28;20063;-58
2024/01/15 07:17:08;;;;;;;17.90;10.68;;;;;;;;;;5114755;28;20051;-57
2024/01/15 07:19:35;;;;;;;17.58;10.40;;;;;;;;;;5114492;28;20416;-58
2024/01/15 07:22:02;;;;;;;17.80;10.30;;;;;;;;;;5114736;28;20056;-57
2024/01/15 07:24:29;;;;;;;15.13;9.90;;;;;;;;;;5114561;28;20047;-57
2024/01/15 07:26:55;;;;;;;17.45;11.32;;;;;;;;;;5114465;28;20055;-57
2024/01/15 07:29:22;;;;;;;14.27;10.20;;;;;;;;;;5114694;28;20054;-57
2024/01/15 07:31:50;;;;;;;15.32;10.63;;;;;;;;;;5114451;28;20078;-57
2024/01/15 07:34:18;;;;;;;18.25;11.00;;;;;;;;;;5114274;28;20374;-58
2024/01/15 07:36:45;;;;;;;12.45;9.65;;;;;;;;;;5114570;28;20051;-57
2024/01/15 07:39:12;;;;;;;14.20;10.10;;;;;;;;;;5114546;28;20047;-57
2024/01/15 07:41:39;;;;;;;13.63;10.82;;;;;;;;;;5114115;28;20048;-57
2024/01/15 07:44:06;;;;;;;12.88;9.80;;;;;;;;;;5114113;28;20052;-57
2024/01/15 07:46:32;;;;;;;14.93;11.05;;;;;;;;;;5113456;28;20069;-57
2024/01/15 07:48:59;;;;;;;14.98;11.80;;;;;;;;;;5113840;28;20051;-57
2024/01/15 07:51:27;;;;;;;19.30;12.23;;;;;;;;;;5113717;28;20055;-58
2024/01/15 07:53:55;;;;;;;16.58;11.30;;;;;;;;;;5113856;28;20062;-57
2024/01/15 07:56:22;;;;;;;17.48;12.43;;;;;;;;;;5113934;28;20052;-57
2024/01/15 07:58:48;;;;;;;14.02;11.30;;;;;;;;;;5113928;28;20052;-57
2024/01/15 08:01:15;;;;;;;14.00;11.23;;;;;;;;;;5113637;28;20063;-57
2024/01/15 08:03:42;;;;;;;15.20;11.27;;;;;;;;;;5113763;28;20062;-57
2024/01/15 08:06:09;;;;;;;17.13;11.30;;;;;;;;;;5114005;28;20408;-57
2024/01/15 08:08:38;;;;;;;13.07;11.65;;;;;;;;;;5113939;28;20048;-57
2024/01/15 08:11:05;;;;;;;14.85;11.65;;;;;;;;;;5113689;28;20515;-57
2024/01/15 08:13:31;;;;;;;14.48;11.23;;;;;;;;;;5113988;28;20058;-57
2024/01/15 08:15:58;;;;;;;14.93;11.18;;;;;;;;;;5113779;28;20043;-58
2024/01/15 08:18:25;;;;;;;12.90;9.98;;;;;;;;;;5113962;28;20476;-57
2024/01/15 08:20:52;;;;;;;12.32;10.20;;;;;;;;;;5113696;28;20058;-58
2024/01/15 08:23:19;;;;;;;12.52;10.05;;;;;;;;;;5113675;28;20052;-57
2024/01/15 08:25:48;;;;;;;12.93;9.85;;;;;;;;;;5114005;28;20047;-57
2024/01/15 08:28:14;;;;;;;14.15;11.45;;;;;;;;;;5113809;28;20047;-57
2024/01/15 08:30:41;;;;;;;14.45;10.63;;;;;;;;;;5113039;28;20390;-56
2024/01/15 08:33:08;;;;;;;15.95;12.38;;;;;;;;;;5113442;28;20078;-56
2024/01/15 08:35:35;;;;;;;13.75;11.52;;;;;;;;;;5113228;28;20052;-57
2024/01/15 08:38:02;;;;;;;13.00;10.38;;;;;;;;;;5113198;28;20063;-57
2024/01/15 08:40:29;;;;;;;12.65;8.90;;;;;;;;;;5113171;28;20055;-56
2024/01/15 08:42:57;;;;;;;13.02;9.57;;;;;;;;;;5113382;28;20071;-58
2024/01/15 08:45:24;;;;;;;13.55;9.57;;;;;;;;;;5113354;28;20055;-57
2024/01/15 08:47:51;;;;;;;13.55;9.60;;;;;;;;;;5113230;28;20056;-58
2024/01/15 08:50:18;;;;;;;10.35;8.18;;;;;;;;;;5113248;28;20055;-58
2024/01/15 08:52:46;;;;;;;12.82;7.55;;;;;;;;;;5113102;28;20062;-58
2024/01/15 08:55:13;;;;;;;9.80;7.32;;;;;;;;;;5113432;28;20473;-59
2024/01/15 08:57:40;;;;;;;9.88;6.45;;;;;;;;;;5112552;28;20054;-58
2024/01/15 09:00:09;;;;;;;8.88;6.70;;;;;;;;;;5113606;28;20503;-57
2024/01/15 09:02:36;;;;;;;10.03;7.57;;;;;;;;;;5113350;28;20438;-56
2024/01/15 09:05:04;;;;;;;9.82;6.63;;;;;;;;;;5113368;28;20058;-55
2024/01/15 09:07:31;;;;;;;9.68;6.53;;;;;;;;;;5113169;28;20071;-56
2024/01/15 09:09:59;;;;;;;8.27;6.57;;;;;;;;;;5113410;28;20416;-55
2024/01/15 09:12:26;;;;;;;7.97;7.07;;;;;;;;;;5112613;28;20051;-55
2024/01/15 09:14:53;;;;;;;6.78;5.57;;;;;;;;;;5113307;28;20393;-56
2024/01/15 09:17:23;;;;;;;12.23;6.93;;;;;;;;;;5112940;28;20056;-55
2024/01/15 09:19:49;;;;;;;7.90;6.32;;;;;;;;;;5112984;28;20052;-55
2024/01/15 09:22:18;;;;;;;9.38;6.85;;;;;;;;;;5112529;28;20412;-56
2024/01/15 09:24:45;;;;;;;7.70;6.43;;;;;;;;;;5113340;28;20047;-55
2024/01/15 09:27:11;;;;;;;9.02;6.47;;;;;;;;;;5113160;28;20248;-55
2024/01/15 09:29:39;;;;;;;8.05;7.07;;;;;;;;;;5112917;28;20055;-55
2024/01/15 09:32:07;;;;;;;9.63;7.18;;;;;;;;;;5113201;28;20055;-55
2024/01/15 09:34:35;;;;;;;7.30;6.55;;;;;;;;;;5112739;28;20052;-57
2024/01/15 09:37:02;;;;;;;8.60;6.70;;;;;;;;;;5112924;28;20058;-55
2024/01/15 09:39:29;;;;;;;9.32;7.50;;;;;;;;;;5113180;28;20052;-56
2024/01/15 09:41:57;;;;;;;8.73;7.57;;;;;;;;;;5113037;28;20047;-58
2024/01/15 09:44:24;;;;;;;9.32;7.40;;;;;;;;;;5113024;28;20055;-57
2024/01/15 09:46:52;;;;;;;8.55;6.72;;;;;;;;;;5112944;28;20063;-58
2024/01/15 09:49:19;;;;;;;10.30;7.20;;;;;;;;;;5112867;28;20048;-55
2024/01/15 09:51:48;;;;;;;9.30;7.28;;;;;;;;;;5113027;28;20059;-55
2024/01/15 09:54:16;;;;;;;8.73;7.82;;;;;;;;;;5112248;28;20063;-54
2024/01/15 09:56:45;;;;;;;14.07;7.68;;;;;;;;;;5112836;28;20396;-56
2024/01/15 09:59:12;;;;;;;11.53;7.30;;;;;;;;;;5112763;28;20052;-55
2024/01/15 10:01:40;;;;;;;8.82;7.20;;;;;;;;;;5112653;28;20473;-56
2024/01/15 10:04:07;;;;;;;9.90;8.18;;;;;;;;;;5112653;28;20055;-55
2024/01/15 10:06:34;;;;;;;9.85;7.35;;;;;;;;;;5112151;28;20059;-52
2024/01/15 10:09:03;;;;;;;9.40;7.72;;;;;;;;;;5114588;28;20048;-55
2024/01/15 10:11:31;;;;;;;11.50;7.75;;;;;;;;;;5116011;28;20416;-56
2024/01/15 10:13:58;;;;;;;8.38;7.05;;;;;;;;;;5116141;28;20048;-56
2024/01/15 10:16:25;;;;;;;7.93;6.97;;;;;;;;;;5116190;28;20051;-55
2024/01/15 10:18:52;;;;;;;7.43;5.72;;;;;;;;;;5116412;28;20409;-55
2024/01/15 10:21:19;;;;;;;7.28;6.22;;;;;;;;;;5116035;28;20055;-56
2024/01/15 10:23:45;;;;;;;7.60;5.85;;;;;;;;;;5116071;28;20406;-55
2024/01/15 10:26:14;;;;;;;6.90;5.38;;;;;;;;;;5115832;28;20074;-52
2024/01/15 10:28:42;;;;;;;9.65;5.95;;;;;;;;;;5115679;28;20064;-54
2024/01/15 10:31:09;;;;;;;6.80;5.50;;;;;;;;;;5115624;28;20047;-55
2024/01/15 10:33:36;;;;;;;6.30;5.63;;;;;;;;;;5115776;28;20055;-54
2024/01/15 10:36:04;;;;;;;6.93;5.03;;;;;;;;;;5115408;28;20055;-52
2024/01/15 10:38:30;;;;;;;6.75;4.95;;;;;;;;;;5115956;28;20047;-54
2024/01/15 10:40:57;;;;;;;5.72;4.90;;;;;;;;;;5115635;28;20063;-55
2024/01/15 10:43:25;;;;;;;5.00;4.20;;;;;;;;;;5115467;28;20047;-53
2024/01/15 10:45:52;;;;;;;5.38;4.13;;;;;;;;;;5115564;28;20397;-54
2024/01/15 10:48:20;;;;;;;5.47;3.90;;;;;;;;;;5115388;28;20056;-54
2024/01/15 10:50:48;;;;;;;5.40;4.20;;;;;;;;;;5115278;28;20051;-53
2024/01/15 10:53:15;;;;;;;6.13;4.63;;;;;;;;;;5115318;28;20137;-54
2024/01/15 10:55:43;;;;;;;5.47;4.63;;;;;;;;;;5115327;28;20051;-54
2024/01/15 10:58:10;;;;;;;5.55;4.82;;;;;;;;;;5115414;28;20058;-54
2024/01/15 11:00:38;;;;;;;6.38;4.38;;;;;;;;;;5115100;28;20078;-54
2024/01/15 11:03:06;;;;;;;6.95;5.20;;;;;;;;;;5115551;28;20405;-53
2024/01/15 11:05:34;;;;;;;5.93;5.32;;;;;;;;;;5114987;28;20477;-52
2024/01/15 11:08:02;;;;;;;7.43;5.75;;;;;;;;;;5115134;28;20056;-53
2024/01/15 11:10:46;;;;;;;6.38;5.32;;;;;;;;;;5115283;28;20405;-54
2024/01/15 11:13:15;;;;;;;6.15;5.35;;;;;;;;;;5115214;28;20056;-53
2024/01/15 11:15:59;;;;;;;9.97;5.10;;;;;;;;;;5115057;28;20055;-54
2024/01/15 11:18:27;;;;;;;8.30;6.00;;;;;;;;;;5114824;28;20063;-53
2024/01/15 11:21:12;;;;;;;6.93;5.47;;;;;;;;;;5113723;28;20485;-54
2024/01/15 11:23:46;;;;;;;7.47;5.00;;;;;;;;;;5114464;28;20047;-54
2024/01/15 11:26:27;;;;;;;7.18;5.13;;;;;;;;;;5114524;28;20044;-54
2024/01/15 11:28:55;;;;;;;7.50;5.22;;;;;;;;;;5114741;28;20431;-56
2024/01/15 11:31:28;;;;;;;8.80;5.03;;;;;;;;;;5114579;28;20055;-55
2024/01/15 11:33:55;;;;;;;8.18;5.22;;;;;;;;;;5114491;28;20078;-55
2024/01/15 11:36:22;;;;;;;8.43;5.25;;;;;;;;;;5114175;28;20048;-55
2024/01/15 11:38:49;;;;;;;5.80;3.90;;;;;;;;;;5114335;28;20051;-56
2024/01/15 11:41:16;;;;;;;6.47;4.72;;;;;;;;;;5114666;28;20051;-53
2024/01/15 11:43:43;;;;;;;10.25;5.93;;;;;;;;;;5114638;28;20058;-56
2024/01/15 11:46:12;;;;;;;8.23;5.28;;;;;;;;;;5114510;28;20059;-55
2024/01/15 11:48:44;;;;;;;7.20;4.73;;;;;;;;;;5114426;28;20051;-55
2024/01/15 11:51:12;;;;;;;6.68;4.93;;;;;;;;;;5114472;28;20469;-55
2024/01/15 11:53:44;;;;;;;9.38;5.18;;;;;;;;;;5114051;28;20381;-56
2024/01/15 11:56:13;;;;;;;7.30;4.68;;;;;;;;;;5114221;28;20048;-55
2024/01/15 11:58:40;;;;;;;8.35;5.25;;;;;;;;;;5114271;28;20062;-56
2024/01/15 12:01:06;;;;;;;9.45;5.85;;;;;;;;;;5114075;28;20055;-56
2024/01/15 12:03:34;;;;;;;8.68;5.32;;;;;;;;;;5113954;28;20059;-56
2024/01/15 12:06:03;;;;;;;8.13;4.80;;;;;;;;;;5113688;28;20051;-55
2024/01/15 12:08:29;;;;;;;7.15;5.20;;;;;;;;;;5113790;28;20058;-56
2024/01/15 12:10:56;;;;;;;8.77;5.47;;;;;;;;;;5113919;28;20048;-55
2024/01/15 12:13:23;;;;;;;7.63;4.60;;;;;;;;;;5113951;28;20047;-56
2024/01/15 12:15:50;;;;;;;9.10;4.90;;;;;;;;;;5113779;28;20043;-56
2024/01/15 12:18:18;;;;;;;5.80;4.07;;;;;;;;;;5113421;28;20481;-55
2024/01/15 12:20:46;;;;;;;6.10;4.28;;;;;;;;;;5113713;28;20067;-56
2024/01/15 12:23:15;;;;;;;6.88;4.20;;;;;;;;;;5114155;28;20063;-55
2024/01/15 12:25:41;;;;;;;4.63;3.35;;;;;;;;;;5113189;28;20059;-54
2024/01/15 12:28:09;;;;;;;6.90;4.20;;;;;;;;;;5113454;28;20051;-56
2024/01/15 12:30:37;;;;;;;6.93;3.90;;;;;;;;;;5113407;28;20051;-56
2024/01/15 12:33:04;;;;;;;6.47;4.22;;;;;;;;;;5113405;28;20052;-55
2024/01/15 12:35:31;;;;;;;8.32;4.43;;;;;;;;;;5113120;28;20062;-56
2024/01/15 12:38:00;;;;;;;5.47;4.35;;;;;;;;;;5113240;28;20063;-55
2024/01/15 12:40:28;;;;;;;7.38;4.28;;;;;;;;;;5113704;28;20051;-56
2024/01/15 12:42:55;;;;;;;7.32;4.95;;;;;;;;;;5113287;28;20408;-56
2024/01/15 12:45:22;;;;;;;7.97;4.82;;;;;;;;;;5113308;28;20047;-56
2024/01/15 12:47:51;;;;;;;9.90;5.07;;;;;;;;;;5113022;28;20043;-55
2024/01/15 12:50:17;;;;;;;6.22;4.97;;;;;;;;;;5112896;28;20055;-56
2024/01/15 12:52:44;;;;;;;6.93;5.22;;;;;;;;;;5113152;28;20056;-56
2024/01/15 12:55:12;;;;;;;6.95;5.90;;;;;;;;;;5113373;28;20056;-56
2024/01/15 12:57:40;;;;;;;8.05;5.95;;;;;;;;;;5113046;28;20147;-55
2024/01/15 13:00:11;;;;;;;8.95;5.93;;;;;;;;;;5113349;28;20058;-56
2024/01/15 13:02:39;;;;;;;8.40;5.50;;;;;;;;;;5113184;28;20052;-56
2024/01/15 13:05:07;;;;;;;9.02;6.10;;;;;;;;;;5113264;28;20048;-56
2024/01/15 13:07:33;;;;;;;8.63;5.30;;;;;;;;;;5112774;28;20059;-56
2024/01/15 13:10:00;;;;;;;9.55;5.93;;;;;;;;;;5113278;28;20051;-56
2024/01/15 13:12:27;;;;;;;9.30;5.60;;;;;;;;;;5113100;28;20051;-56
2024/01/15 13:14:56;;;;;;;10.13;5.30;;;;;;;;;;5113163;28;20047;-55
2024/01/15 13:17:23;;;;;;;7.22;4.38;;;;;;;;;;5112994;28;20044;-55
2024/01/15 13:19:49;;;;;;;6.07;4.78;;;;;;;;;;5113115;28;20047;-56
2024/01/15 13:22:16;;;;;;;7.00;5.25;;;;;;;;;;5112989;28;20063;-56
2024/01/15 13:24:43;;;;;;;6.75;4.72;;;;;;;;;;5113108;28;20400;-56
2024/01/15 13:27:10;;;;;;;10.40;4.82;;;;;;;;;;5113135;28;20504;-56
2024/01/15 13:29:37;;;;;;;9.73;5.10;;;;;;;;;;5112754;28;20052;-56
2024/01/15 13:32:05;;;;;;;6.00;4.40;;;;;;;;;;5112693;28;20051;-54
2024/01/15 13:34:32;;;;;;;5.68;4.15;;;;;;;;;;5112562;28;20047;-56
2024/01/15 13:36:59;;;;;;;6.35;4.13;;;;;;;;;;5112657;28;20408;-57
2024/01/15 13:39:26;;;;;;;6.30;4.30;;;;;;;;;;5112532;28;20055;-56
2024/01/15 13:41:53;;;;;;;5.10;4.00;;;;;;;;;;5112936;28;20048;-56
2024/01/15 13:44:20;;;;;;;6.20;4.30;;;;;;;;;;5115516;28;20058;-57
2024/01/15 13:46:47;;;;;;;6.70;4.28;;;;;;;;;;5116943;28;20052;-57
2024/01/15 13:49:15;;;;;;;7.38;4.45;;;;;;;;;;5116878;28;20078;-56
2024/01/15 13:51:42;;;;;;;6.93;4.22;;;;;;;;;;5116831;28;20404;-56
2024/01/15 13:54:09;;;;;;;6.57;4.63;;;;;;;;;;5116528;28;20149;-57
2024/01/15 13:56:36;;;;;;;8.88;5.28;;;;;;;;;;5116932;28;20055;-56
2024/01/15 13:59:04;;;;;;;11.10;6.47;;;;;;;;;;5116717;28;20058;-56
2024/01/15 14:01:31;;;;;;;9.57;5.88;;;;;;;;;;5116470;28;20055;-56
2024/01/15 14:03:58;;;;;;;6.40;5.70;;;;;;;;;;5116798;28;20520;-57
2024/01/15 14:06:26;;;;;;;7.65;5.80;;;;;;;;;;5116605;28;20505;-57
2024/01/15 14:08:53;;;;;;;10.55;6.55;;;;;;;;;;5116339;28;20449;-57
2024/01/15 14:11:20;;;;;;;5.97;5.22;;;;;;;;;;5116498;28;20055;-56
2024/01/15 14:13:47;;;;;;;9.80;5.65;;;;;;;;;;5116466;28;20055;-57
2024/01/15 14:16:14;;;;;;;9.10;5.32;;;;;;;;;;5116370;28;20056;-56
2024/01/15 14:18:40;;;;;;;7.95;5.68;;;;;;;;;;5116258;28;20058;-56
2024/01/15 14:21:07;;;;;;;6.90;5.63;;;;;;;;;;5115905;28;20051;-57
2024/01/15 14:23:36;;;;;;;9.43;6.00;;;;;;;;;;5116127;28;20063;-57
2024/01/15 14:26:04;;;;;;;9.85;5.88;;;;;;;;;;5116145;28;20066;-57